createdAt,value
2018-10-05T00:01:35.020Z,11.30
2018-10-05T00:04:03.224Z,11.30
2018-10-05T00:06:31.507Z,11.30
2018-10-05T00:08:59.902Z,11.30
2018-10-05T00:11:28.115Z,11.40
2018-10-05T00:13:56.407Z,11.40
2018-10-05T00:16:24.570Z,11.40
2018-10-05T00:18:53.524Z,11.40
2018-10-05T00:21:21.872Z,11.40
2018-10-05T00:23:50.295Z,11.40
2018-10-05T00:26:18.570Z,11.40
2018-10-05T00:28:46.797Z,11.40
2018-10-05T00:31:15.168Z,11.50
2018-10-05T00:33:43.373Z,11.60
2018-10-05T00:36:11.577Z,11.60
2018-10-05T00:38:39.787Z,11.50
2018-10-05T00:41:08.014Z,11.60
2018-10-05T00:43:36.205Z,11.60
2018-10-05T00:46:04.409Z,11.60
2018-10-05T00:48:32.626Z,11.60
2018-10-05T00:51:00.753Z,11.60
2018-10-05T00:53:29.216Z,11.60
2018-10-05T00:55:57.398Z,11.60
2018-10-05T00:58:25.575Z,11.70
2018-10-05T01:00:53.755Z,11.60
2018-10-05T01:03:22.137Z,11.60
2018-10-05T01:05:57.115Z,11.60
2018-10-05T01:08:25.558Z,11.60
2018-10-05T01:10:53.825Z,11.50
2018-10-05T01:13:22.050Z,11.50
2018-10-05T01:15:50.263Z,11.40
2018-10-05T01:18:19.261Z,11.40
2018-10-05T01:20:48.092Z,11.40
2018-10-05T01:23:16.342Z,11.30
2018-10-05T01:25:44.529Z,11.30
2018-10-05T01:28:12.693Z,11.40
2018-10-05T01:30:40.876Z,11.40
2018-10-05T01:33:09.020Z,11.30
2018-10-05T01:35:37.355Z,11.30
2018-10-05T01:38:05.556Z,11.30
2018-10-05T01:40:33.741Z,11.30
2018-10-05T01:43:01.978Z,11.30
2018-10-05T01:45:30.221Z,11.30
2018-10-05T01:47:58.460Z,11.30
2018-10-05T01:50:28.644Z,11.30
2018-10-05T01:52:56.920Z,11.20
2018-10-05T01:55:25.141Z,11.20
2018-10-05T01:57:53.418Z,11.20
2018-10-05T02:00:21.680Z,11.20
2018-10-05T02:02:49.896Z,11.10
2018-10-05T02:05:18.131Z,11.10
2018-10-05T02:07:46.365Z,11.10
2018-10-05T02:10:16.177Z,11.10
2018-10-05T02:12:52.010Z,11.10
2018-10-05T02:15:25.568Z,11.10
2018-10-05T02:17:55.471Z,11.10
2018-10-05T02:23:11.811Z,11.10
2018-10-05T02:25:41.699Z,11.10
2018-10-05T02:49:53.085Z,11.20
2018-10-05T02:52:24.683Z,11.10
2018-10-05T02:54:53.207Z,11.20
2018-10-05T02:57:23.227Z,11.20
2018-10-05T02:59:52.767Z,11.20
2018-10-05T03:02:32.951Z,11.20
2018-10-05T03:07:41.633Z,11.20
2018-10-05T03:10:13.706Z,11.20
2018-10-05T03:12:42.255Z,11.20
2018-10-05T03:15:10.943Z,11.30
2018-10-05T03:17:39.844Z,11.30
2018-10-05T03:24:46.556Z,11.20
2018-10-05T03:27:25.539Z,11.30
2018-10-05T03:29:59.735Z,11.20
2018-10-05T03:35:27.033Z,11.20
2018-10-05T03:40:47.466Z,11.30
2018-10-05T03:43:20.613Z,11.30
2018-10-05T03:51:35.103Z,11.30
2018-10-05T03:56:48.383Z,11.30
2018-10-05T04:03:18.347Z,11.30
2018-10-05T04:05:57.395Z,11.30
2018-10-05T04:11:18.011Z,11.30
2018-10-05T04:13:56.031Z,11.40
2018-10-05T04:16:47.317Z,11.40
2018-10-05T04:33:08.763Z,11.40
2018-10-05T04:41:36.548Z,11.50
2018-10-05T04:44:06.152Z,11.60
2018-10-05T04:46:34.639Z,11.60
2018-10-05T04:49:11.624Z,11.70
2018-10-05T04:57:23.036Z,11.70
2018-10-05T05:09:02.347Z,11.70
2018-10-05T05:28:57.601Z,11.70
2018-10-05T05:31:26.118Z,11.70
2018-10-05T05:33:54.440Z,11.60
2018-10-05T05:36:22.706Z,11.60
2018-10-05T05:38:50.884Z,11.60
2018-10-05T05:41:19.084Z,11.60
2018-10-05T05:43:47.293Z,11.60
2018-10-05T05:46:15.568Z,11.60
2018-10-05T05:48:44.086Z,11.60
2018-10-05T05:51:12.478Z,11.60
2018-10-05T05:53:40.641Z,11.50
2018-10-05T05:56:08.859Z,11.50
2018-10-05T05:59:40.343Z,11.50
2018-10-05T06:02:08.581Z,11.60
2018-10-05T06:04:36.840Z,11.50
2018-10-05T06:07:05.034Z,11.50
2018-10-05T06:09:33.301Z,11.50
2018-10-05T06:12:01.479Z,11.50
2018-10-05T06:14:29.719Z,11.60
2018-10-05T06:16:58.073Z,11.50
2018-10-05T06:19:26.291Z,11.50
2018-10-05T06:21:54.691Z,11.50
2018-10-05T06:24:22.669Z,11.50
2018-10-05T06:26:50.909Z,11.50
2018-10-05T06:29:19.360Z,11.50
2018-10-05T06:31:47.865Z,11.50
2018-10-05T06:34:16.593Z,11.50
2018-10-05T06:36:44.833Z,11.50
2018-10-05T06:39:13.232Z,11.50
2018-10-05T06:41:41.503Z,11.40
2018-10-05T06:44:09.733Z,11.50
2018-10-05T06:46:37.952Z,11.50
2018-10-05T06:49:06.204Z,11.60
2018-10-05T06:51:34.421Z,11.60
2018-10-05T06:54:03.135Z,11.70
2018-10-05T06:56:31.345Z,11.80
2018-10-05T06:58:59.651Z,11.90
2018-10-05T07:01:28.557Z,11.90
2018-10-05T07:03:56.677Z,12.00
2018-10-05T07:06:24.911Z,12.10
2018-10-05T07:08:53.127Z,12.10
2018-10-05T07:11:21.428Z,12.20
2018-10-05T07:13:49.674Z,12.30
2018-10-05T07:16:18.062Z,12.30
2018-10-05T07:18:46.316Z,12.40
2018-10-05T07:21:14.607Z,12.40
2018-10-05T07:23:42.880Z,12.50
2018-10-05T07:26:11.101Z,12.60
2018-10-05T07:28:39.417Z,12.60
2018-10-05T07:31:07.580Z,12.60
2018-10-05T07:33:35.885Z,12.70
2018-10-05T07:36:04.161Z,12.80
2018-10-05T07:38:32.398Z,12.90
2018-10-05T07:41:00.781Z,13.00
2018-10-05T07:43:28.994Z,13.00
2018-10-05T07:45:57.191Z,13.10
2018-10-05T07:48:25.469Z,13.30
2018-10-05T07:50:54.342Z,13.40
2018-10-05T07:53:22.584Z,13.50
2018-10-05T07:55:50.955Z,13.50
2018-10-05T07:58:19.135Z,13.60
2018-10-05T08:00:47.424Z,13.60
2018-10-05T08:03:15.663Z,13.70
2018-10-05T08:05:43.856Z,13.80
2018-10-05T08:08:12.031Z,13.90
2018-10-05T08:10:40.265Z,14.00
2018-10-05T08:13:08.472Z,14.00
2018-10-05T08:15:36.728Z,14.10
2018-10-05T08:18:04.978Z,14.10
2018-10-05T08:20:33.181Z,14.20
2018-10-05T08:23:01.396Z,14.30
2018-10-05T08:25:29.576Z,14.40
2018-10-05T08:27:57.741Z,14.50
2018-10-05T08:30:26.032Z,14.70
2018-10-05T08:32:54.290Z,14.90
2018-10-05T08:35:22.507Z,15.40
2018-10-05T08:37:50.750Z,16.90
2018-10-05T08:40:19.071Z,18.50
2018-10-05T08:42:47.424Z,19.60
2018-10-05T08:45:15.790Z,19.90
2018-10-05T08:47:44.118Z,20.10
2018-10-05T08:50:12.314Z,21.00
2018-10-05T08:52:40.530Z,21.80
2018-10-05T08:55:08.714Z,22.30
2018-10-05T08:57:36.978Z,22.20
2018-10-05T09:00:05.637Z,22.30
2018-10-05T09:02:33.834Z,22.50
2018-10-05T09:05:02.043Z,22.70
2018-10-05T09:07:30.311Z,22.80
2018-10-05T09:09:58.628Z,23.20
2018-10-05T09:12:26.788Z,23.70
2018-10-05T09:14:55.052Z,24.00
2018-10-05T09:17:23.244Z,24.30
2018-10-05T09:19:51.412Z,24.00
2018-10-05T09:22:19.551Z,24.10
2018-10-05T09:24:48.316Z,24.10
2018-10-05T09:27:16.598Z,24.30
2018-10-05T09:29:44.905Z,23.90
2018-10-05T09:32:13.087Z,24.20
2018-10-05T09:34:41.439Z,24.50
2018-10-05T09:37:09.660Z,24.80
2018-10-05T09:39:37.912Z,24.40
2018-10-05T09:42:06.214Z,24.80
2018-10-05T09:44:34.571Z,25.00
2018-10-05T09:47:03.205Z,24.30
2018-10-05T09:49:31.412Z,24.40
2018-10-05T09:51:59.752Z,24.50
2018-10-05T09:54:28.600Z,24.70
2018-10-05T09:56:56.867Z,24.10
2018-10-05T09:59:25.249Z,23.90
2018-10-05T10:01:59.087Z,23.20
2018-10-05T10:04:27.504Z,22.70
2018-10-05T10:06:55.723Z,22.40
2018-10-05T10:09:23.976Z,22.40
2018-10-05T10:11:52.205Z,22.20
2018-10-05T10:14:20.415Z,22.40
2018-10-05T10:16:48.611Z,22.30
2018-10-05T10:19:16.955Z,22.40
2018-10-05T10:21:45.212Z,22.50
2018-10-05T10:24:13.502Z,22.60
2018-10-05T10:26:41.775Z,22.60
2018-10-05T10:29:10.079Z,22.70
2018-10-05T10:31:38.327Z,22.70
2018-10-05T10:34:06.794Z,22.60
2018-10-05T10:36:35.078Z,22.50
2018-10-05T10:39:03.501Z,22.60
2018-10-05T10:41:31.931Z,22.70
2018-10-05T10:44:00.296Z,23.00
2018-10-05T10:46:28.629Z,23.00
2018-10-05T10:48:56.914Z,23.00
2018-10-05T10:51:25.068Z,23.30
2018-10-05T10:53:53.372Z,23.40
2018-10-05T10:56:21.627Z,23.00
2018-10-05T10:58:49.813Z,22.90
2018-10-05T11:01:18.360Z,22.80
2018-10-05T11:03:46.632Z,23.00
2018-10-05T11:06:14.950Z,23.00
2018-10-05T11:08:43.196Z,23.40
2018-10-05T11:11:11.507Z,23.20
2018-10-05T11:13:39.634Z,23.50
2018-10-05T11:16:07.950Z,23.50
2018-10-05T11:18:36.191Z,23.60
2018-10-05T11:21:04.888Z,23.60
2018-10-05T11:23:33.410Z,23.50
2018-10-05T11:26:01.678Z,23.30
2018-10-05T11:28:29.876Z,23.40
2018-10-05T11:30:58.125Z,23.80
2018-10-05T11:33:26.406Z,24.00
2018-10-05T11:35:54.670Z,24.00
2018-10-05T11:38:23.029Z,23.70
2018-10-05T11:40:51.395Z,23.40
2018-10-05T11:43:19.544Z,23.10
2018-10-05T11:45:47.846Z,23.80
2018-10-05T11:48:16.138Z,24.20
2018-10-05T11:50:44.378Z,24.30
2018-10-05T11:53:12.574Z,24.50
2018-10-05T11:55:40.882Z,24.70
2018-10-05T11:58:09.918Z,24.60
2018-10-05T12:00:38.092Z,24.40
2018-10-05T12:03:06.373Z,24.70
2018-10-05T12:05:34.637Z,25.30
2018-10-05T12:08:02.798Z,25.50
2018-10-05T12:10:31.020Z,25.80
2018-10-05T12:12:59.267Z,25.60
2018-10-05T12:15:27.525Z,26.30
2018-10-05T12:17:58.801Z,26.50
2018-10-05T12:20:27.756Z,26.50
2018-10-05T12:22:56.023Z,25.80
2018-10-05T12:25:24.221Z,25.00
2018-10-05T12:27:52.542Z,24.70
2018-10-05T12:30:20.771Z,24.60
2018-10-05T12:32:55.937Z,24.30
2018-10-05T12:35:24.125Z,24.00
2018-10-05T12:37:52.346Z,24.60
2018-10-05T12:40:20.589Z,25.10
2018-10-05T12:42:48.863Z,25.30
2018-10-05T12:45:17.115Z,25.00
2018-10-05T12:47:45.391Z,25.00
2018-10-05T12:50:13.696Z,24.70
2018-10-05T12:52:41.869Z,24.40
2018-10-05T12:55:10.078Z,24.10
2018-10-05T12:57:38.389Z,24.40
2018-10-05T13:00:06.769Z,24.30
2018-10-05T13:02:35.012Z,24.00
2018-10-05T13:05:03.317Z,24.00
2018-10-05T13:07:31.517Z,23.90
2018-10-05T13:09:59.811Z,23.90
2018-10-05T13:12:28.019Z,23.60
2018-10-05T13:14:56.229Z,23.40
2018-10-05T13:17:24.495Z,23.70
2018-10-05T13:19:52.951Z,23.40
2018-10-05T13:22:21.153Z,23.40
2018-10-05T13:24:49.442Z,23.40
2018-10-05T13:27:17.729Z,23.80
2018-10-05T13:29:45.969Z,23.90
2018-10-05T13:32:14.231Z,24.10
2018-10-05T13:34:42.437Z,23.60
2018-10-05T13:37:10.741Z,23.70
2018-10-05T13:39:39.168Z,23.30
2018-10-05T13:42:07.563Z,22.90
2018-10-05T13:44:35.943Z,22.60
2018-10-05T13:47:04.425Z,22.20
2018-10-05T13:49:32.609Z,22.10
2018-10-05T13:52:00.839Z,22.10
2018-10-05T13:54:29.073Z,22.10
2018-10-05T13:56:57.361Z,22.30
2018-10-05T13:59:25.588Z,22.40
2018-10-05T14:01:53.981Z,22.00
2018-10-05T14:04:22.926Z,21.80
2018-10-05T14:06:51.184Z,21.60
2018-10-05T14:09:19.492Z,21.60
2018-10-05T14:11:47.757Z,21.60
2018-10-05T14:14:15.999Z,21.70
2018-10-05T14:16:44.252Z,21.70
2018-10-05T14:19:12.568Z,21.50
2018-10-05T14:21:40.800Z,21.50
2018-10-05T14:24:09.081Z,21.50
2018-10-05T14:26:37.330Z,21.60
2018-10-05T14:29:05.570Z,21.40
2018-10-05T14:31:33.729Z,21.30
2018-10-05T14:34:02.291Z,21.00
2018-10-05T14:36:30.499Z,21.00
2018-10-05T14:38:59.034Z,20.90
2018-10-05T14:41:27.335Z,20.90
2018-10-05T14:43:55.912Z,20.80
2018-10-05T14:46:24.242Z,20.60
2018-10-05T14:51:27.317Z,20.50
2018-10-05T14:53:55.551Z,20.40
2018-10-05T14:56:23.795Z,20.30
2018-10-05T14:58:51.990Z,20.30
2018-10-05T15:01:20.269Z,20.20
2018-10-05T15:03:48.512Z,20.10
2018-10-05T15:06:17.958Z,20.00
2018-10-05T15:08:46.135Z,20.00
2018-10-05T15:11:14.368Z,19.80
2018-10-05T15:13:42.601Z,19.70
2018-10-05T15:16:11.105Z,19.70
2018-10-05T15:18:39.436Z,19.60
2018-10-05T15:21:08.044Z,19.60
2018-10-05T15:23:36.590Z,19.60
2018-10-05T15:26:04.882Z,19.40
2018-10-05T15:28:33.124Z,19.30
2018-10-05T15:31:01.368Z,19.30
2018-10-05T15:33:29.603Z,19.10
2018-10-05T15:35:58.018Z,19.10
2018-10-05T15:38:26.228Z,19.00
2018-10-05T15:40:54.430Z,18.90
2018-10-05T15:43:22.670Z,18.90
2018-10-05T15:45:50.884Z,18.80
2018-10-05T15:48:19.264Z,18.80
2018-10-05T15:50:47.568Z,18.70
2018-10-05T15:53:22.642Z,18.70
2018-10-05T15:55:50.924Z,18.60
2018-10-05T15:58:19.153Z,18.50
2018-10-05T16:00:47.480Z,18.40
2018-10-05T16:03:15.675Z,18.40
2018-10-05T16:05:44.009Z,18.40
2018-10-05T16:08:12.298Z,18.40
2018-10-05T16:10:40.489Z,18.30
2018-10-05T16:13:08.673Z,18.20
2018-10-05T16:15:36.922Z,18.10
2018-10-05T16:18:05.212Z,18.00
2018-10-05T16:20:33.436Z,17.90
2018-10-05T16:23:01.862Z,17.80
2018-10-05T16:25:30.187Z,17.70
2018-10-05T16:27:58.415Z,17.60
2018-10-05T16:30:26.577Z,17.50
2018-10-05T16:32:55.456Z,17.40
2018-10-05T16:35:23.683Z,17.30
2018-10-05T16:37:51.951Z,17.20
2018-10-05T16:40:20.183Z,17.10
2018-10-05T16:42:48.396Z,17.10
2018-10-05T16:45:16.602Z,17.10
2018-10-05T16:47:44.895Z,16.90
2018-10-05T16:50:13.106Z,16.80
2018-10-05T16:52:41.957Z,16.70
2018-10-05T16:55:10.306Z,16.60
2018-10-05T16:57:38.595Z,16.50
2018-10-05T17:00:07.173Z,16.40
2018-10-05T17:02:35.440Z,16.40
2018-10-05T17:05:03.809Z,16.30
2018-10-05T17:07:32.088Z,16.20
2018-10-05T17:10:01.186Z,16.20
2018-10-05T17:12:29.344Z,16.10
2018-10-05T17:14:57.563Z,16.00
2018-10-05T17:17:25.791Z,16.00
2018-10-05T17:19:54.028Z,15.90
2018-10-05T17:22:22.307Z,15.90
2018-10-05T17:24:50.585Z,15.80
2018-10-05T17:27:18.796Z,15.70
2018-10-05T17:29:47.176Z,15.70
2018-10-05T17:32:15.405Z,15.70
2018-10-05T17:34:43.608Z,15.60
2018-10-05T17:37:11.766Z,15.50
2018-10-05T17:39:40.167Z,15.50
2018-10-05T17:42:08.425Z,15.40
2018-10-05T17:44:36.748Z,15.40
2018-10-05T17:47:05.028Z,15.30
2018-10-05T17:49:33.376Z,15.20
2018-10-05T17:52:02.081Z,15.10
2018-10-05T17:54:30.430Z,15.00
2018-10-05T17:56:58.696Z,14.90
2018-10-05T17:59:26.836Z,14.90
2018-10-05T18:01:55.289Z,14.90
2018-10-05T18:04:23.393Z,14.80
2018-10-05T18:06:51.721Z,14.80
2018-10-05T18:09:19.857Z,14.70
2018-10-05T18:11:48.214Z,14.70
2018-10-05T18:14:16.363Z,14.60
2018-10-05T18:16:44.762Z,14.60
2018-10-05T18:19:12.958Z,14.50
2018-10-05T18:21:41.206Z,14.50
2018-10-05T18:24:09.444Z,14.40
2018-10-05T18:26:37.668Z,14.40
2018-10-05T18:29:05.941Z,14.30
2018-10-05T18:31:34.198Z,14.40
2018-10-05T18:34:02.556Z,14.30
2018-10-05T18:36:31.626Z,14.30
2018-10-05T18:38:59.880Z,14.20
2018-10-05T18:41:28.137Z,14.20
2018-10-05T18:43:56.440Z,14.10
2018-10-05T18:46:24.611Z,14.10
2018-10-05T18:48:52.860Z,14.10
2018-10-05T18:51:21.221Z,14.10
2018-10-05T18:53:49.522Z,14.00
2018-10-05T18:56:29.260Z,14.00
2018-10-05T18:58:57.536Z,14.00
2018-10-05T19:01:25.758Z,13.90
2018-10-05T19:03:54.138Z,13.90
2018-10-05T19:06:22.717Z,13.90
2018-10-05T19:08:50.988Z,13.90
2018-10-05T19:11:19.854Z,13.80
2018-10-05T19:13:48.107Z,13.80
2018-10-05T19:16:16.449Z,13.80
2018-10-05T19:18:44.774Z,13.80
2018-10-05T19:21:13.026Z,13.80
2018-10-05T19:23:41.243Z,13.80
2018-10-05T19:26:09.610Z,13.70
2018-10-05T19:28:37.862Z,13.70
2018-10-05T19:31:06.280Z,13.70
2018-10-05T19:33:35.427Z,13.70
2018-10-05T19:36:03.746Z,13.60
2018-10-05T19:38:32.021Z,13.60
2018-10-05T19:41:00.517Z,13.60
2018-10-05T19:43:28.910Z,13.60
2018-10-05T19:45:57.208Z,13.50
2018-10-05T19:48:26.495Z,13.40
2018-10-05T19:51:01.327Z,13.40
2018-10-05T19:53:29.611Z,13.30
2018-10-05T19:55:58.905Z,13.30
2018-10-05T19:58:27.244Z,13.30
2018-10-05T20:00:55.587Z,13.30
2018-10-05T20:03:24.056Z,13.20
2018-10-05T20:05:53.320Z,13.10
2018-10-05T20:08:21.705Z,13.10
2018-10-05T20:10:50.100Z,13.00
2018-10-05T20:13:18.451Z,13.00
2018-10-05T20:15:46.716Z,13.00
2018-10-05T20:18:15.134Z,12.90
2018-10-05T20:20:43.550Z,12.90
2018-10-05T20:23:11.887Z,12.90
2018-10-05T20:25:40.324Z,12.80
2018-10-05T20:28:08.640Z,12.80
2018-10-05T20:30:37.408Z,12.70
2018-10-05T20:33:05.744Z,12.60
2018-10-05T20:35:34.141Z,12.60
2018-10-05T20:38:03.194Z,12.60
2018-10-05T20:40:31.723Z,12.50
2018-10-05T20:43:00.458Z,12.50
2018-10-05T20:45:28.784Z,12.50
2018-10-05T20:47:57.282Z,12.50
2018-10-05T20:50:25.568Z,12.50
2018-10-05T20:52:54.405Z,12.50
2018-10-05T20:55:22.763Z,12.40
2018-10-05T20:57:50.960Z,12.40
2018-10-05T21:00:19.194Z,12.40
2018-10-05T21:02:47.398Z,12.40
2018-10-05T21:05:15.676Z,12.40
2018-10-05T21:07:44.262Z,12.40
2018-10-05T21:10:19.181Z,12.30
2018-10-05T21:12:47.393Z,12.30
2018-10-05T21:15:15.758Z,12.30
2018-10-05T21:17:43.959Z,12.20
2018-10-05T21:20:12.328Z,12.20
2018-10-05T21:22:40.548Z,12.20
2018-10-05T21:25:09.631Z,12.20
2018-10-05T21:27:37.844Z,12.10
2018-10-05T21:30:09.709Z,12.10
2018-10-05T21:32:37.963Z,12.10
2018-10-05T21:35:06.294Z,12.00
2018-10-05T21:37:34.494Z,12.00
2018-10-05T21:40:02.739Z,11.90
2018-10-05T21:42:31.179Z,11.90
2018-10-05T21:45:06.243Z,11.90
2018-10-05T21:47:34.401Z,11.90
2018-10-05T21:50:02.799Z,11.80
2018-10-05T21:52:31.102Z,11.80
2018-10-05T21:54:59.284Z,11.70
2018-10-05T21:57:27.547Z,11.70
2018-10-05T21:59:55.736Z,11.60
2018-10-05T22:02:23.907Z,11.60
2018-10-05T22:04:58.851Z,11.60
2018-10-05T22:07:27.079Z,11.50
2018-10-05T22:09:55.455Z,11.50
2018-10-05T22:12:23.719Z,11.50
2018-10-05T22:14:51.961Z,11.50
2018-10-05T22:17:20.185Z,11.50
2018-10-05T22:19:48.620Z,11.50
2018-10-05T22:22:16.773Z,11.50
2018-10-05T22:24:45.013Z,11.50
2018-10-05T22:27:13.186Z,11.50
2018-10-05T22:29:41.414Z,11.50
2018-10-05T22:32:16.561Z,11.40
2018-10-05T22:34:44.876Z,11.40
2018-10-05T22:37:13.388Z,11.40
2018-10-05T22:39:41.603Z,11.40
2018-10-05T22:42:09.875Z,11.40
2018-10-05T22:44:38.081Z,11.50
2018-10-05T22:47:06.338Z,11.40
2018-10-05T22:49:34.528Z,11.40
2018-10-05T22:52:02.734Z,11.40
2018-10-05T22:54:30.948Z,11.40
2018-10-05T22:56:59.131Z,11.40
2018-10-05T22:59:27.361Z,11.30
2018-10-05T23:02:02.371Z,11.30
2018-10-05T23:04:30.535Z,11.30
2018-10-05T23:06:58.786Z,11.40
2018-10-05T23:09:27.188Z,11.40
2018-10-05T23:11:55.421Z,11.40
2018-10-05T23:14:23.696Z,11.40
2018-10-05T23:16:51.853Z,11.40
2018-10-05T23:19:20.053Z,11.40
2018-10-05T23:21:48.447Z,11.40
2018-10-05T23:24:16.634Z,11.40
2018-10-05T23:26:44.837Z,11.40
2018-10-05T23:29:29.492Z,11.40
2018-10-05T23:31:57.667Z,11.30
2018-10-05T23:34:25.907Z,11.30
2018-10-05T23:36:54.081Z,11.30
2018-10-05T23:39:22.481Z,11.30
2018-10-05T23:41:50.652Z,11.20
2018-10-05T23:44:18.873Z,11.20
2018-10-05T23:46:47.225Z,11.20
2018-10-05T23:49:15.488Z,11.20
2018-10-05T23:51:43.849Z,11.10
2018-10-05T23:54:18.403Z,11.10
2018-10-05T23:56:46.652Z,11.00
2018-10-05T23:59:14.869Z,11.00
